createdAt,value
2022-12-04T00:01:04.940Z,14.73
2022-12-04T00:03:32.132Z,15.75
2022-12-04T00:06:06.136Z,14.25
2022-12-04T00:08:33.157Z,15.15
2022-12-04T00:11:00.309Z,15.48
2022-12-04T00:13:27.579Z,14.23
2022-12-04T00:15:54.708Z,15.05
2022-12-04T00:18:21.795Z,14.50
2022-12-04T00:20:49.136Z,14.52
2022-12-04T00:23:16.237Z,14.30
2022-12-04T00:25:43.328Z,14.18
2022-12-04T00:28:10.432Z,13.77
2022-12-04T00:30:41.251Z,15.07
2022-12-04T00:33:08.323Z,14.13
2022-12-04T00:35:35.386Z,14.70
2022-12-04T00:38:03.068Z,14.90
2022-12-04T00:40:30.098Z,14.68
2022-12-04T00:42:57.133Z,15.10
2022-12-04T00:45:24.275Z,16.10
2022-12-04T00:47:51.370Z,14.77
2022-12-04T00:50:18.406Z,14.32
2022-12-04T00:52:45.478Z,15.52
2022-12-04T00:55:12.571Z,14.73
2022-12-04T00:57:39.652Z,15.95
2022-12-04T01:00:07.016Z,15.15
2022-12-04T01:02:34.349Z,14.75
2022-12-04T01:05:01.840Z,14.52
2022-12-04T01:07:28.951Z,15.82
2022-12-04T01:09:56.329Z,14.30
2022-12-04T01:12:23.553Z,14.95
2022-12-04T01:14:50.609Z,15.68
2022-12-04T01:17:17.614Z,15.98
2022-12-04T01:19:44.717Z,15.70
2022-12-04T01:22:11.716Z,15.10
2022-12-04T01:24:38.810Z,14.07
2022-12-04T01:27:05.894Z,15.13
2022-12-04T01:29:32.963Z,15.30
2022-12-04T01:32:00.142Z,14.98
2022-12-04T01:34:27.292Z,14.93
2022-12-04T01:36:54.337Z,15.63
2022-12-04T01:39:21.455Z,14.82
2022-12-04T01:41:48.505Z,14.65
2022-12-04T01:44:16.940Z,15.50
2022-12-04T01:46:45.063Z,14.85
2022-12-04T01:49:32.347Z,15.98
2022-12-04T01:52:19.728Z,15.57
2022-12-04T01:54:47.690Z,14.73
2022-12-04T01:57:18.783Z,15.57
2022-12-04T01:59:50.973Z,15.73
2022-12-04T02:02:19.374Z,15.10
2022-12-04T02:04:46.585Z,16.25
2022-12-04T02:07:13.666Z,15.77
2022-12-04T02:09:40.794Z,15.60
2022-12-04T02:12:32.698Z,14.60
2022-12-04T02:15:02.863Z,15.55
2022-12-04T02:17:37.158Z,15.52
2022-12-04T02:20:04.370Z,16.63
2022-12-04T02:22:40.302Z,14.73
2022-12-04T02:25:25.777Z,14.98
2022-12-04T02:28:11.259Z,15.57
2022-12-04T02:30:40.296Z,15.93
2022-12-04T02:33:27.147Z,14.68
2022-12-04T02:36:01.009Z,14.93
2022-12-04T02:38:30.901Z,15.50
2022-12-04T02:41:07.377Z,15.65
2022-12-04T02:43:36.581Z,15.63
2022-12-04T02:46:04.761Z,14.63
2022-12-04T02:48:32.607Z,14.13
2022-12-04T02:50:59.938Z,14.25
2022-12-04T02:53:28.141Z,15.45
2022-12-04T02:55:56.410Z,14.00
2022-12-04T02:58:26.292Z,15.13
2022-12-04T03:00:53.809Z,15.30
2022-12-04T03:03:27.849Z,14.82
2022-12-04T03:06:05.874Z,14.35
2022-12-04T03:08:34.937Z,15.07
2022-12-04T03:11:02.026Z,15.00
2022-12-04T03:13:34.138Z,13.95
2022-12-04T03:16:05.640Z,14.52
2022-12-04T03:18:37.184Z,14.43
2022-12-04T03:21:05.843Z,13.63
2022-12-04T03:23:33.732Z,13.73
2022-12-04T03:26:05.030Z,14.25
2022-12-04T03:28:55.394Z,14.05
2022-12-04T03:34:11.901Z,14.02
2022-12-04T03:36:40.336Z,13.95
2022-12-04T03:39:33.544Z,12.75
2022-12-04T03:42:02.417Z,13.55
2022-12-04T03:44:29.467Z,13.68
2022-12-04T03:46:58.616Z,14.02
2022-12-04T03:49:43.999Z,12.50
2022-12-04T03:52:15.814Z,11.82
2022-12-04T03:54:52.888Z,12.05
2022-12-04T03:57:21.937Z,12.38
2022-12-04T03:59:58.915Z,12.10
2022-12-04T04:02:26.963Z,11.70
2022-12-04T04:04:54.142Z,12.23
2022-12-04T04:07:22.437Z,12.38
2022-12-04T04:09:49.845Z,12.57
2022-12-04T04:12:24.041Z,12.75
2022-12-04T04:15:13.647Z,12.70
2022-12-04T04:18:00.630Z,11.95
2022-12-04T04:21:06.418Z,13.13
2022-12-04T04:24:00.158Z,12.55
2022-12-04T04:26:27.347Z,13.00
2022-12-04T04:28:54.402Z,12.95
2022-12-04T04:31:27.595Z,12.27
2022-12-04T04:34:04.084Z,12.98
2022-12-04T04:36:31.155Z,12.18
2022-12-04T04:39:07.307Z,12.75
2022-12-04T04:41:42.429Z,13.20
2022-12-04T04:44:09.454Z,12.80
2022-12-04T04:46:38.288Z,13.13
2022-12-04T04:49:05.838Z,13.45
2022-12-04T04:51:32.963Z,13.23
2022-12-04T04:54:00.287Z,12.40
2022-12-04T04:56:27.347Z,12.65
2022-12-04T04:58:54.369Z,12.07
2022-12-04T05:01:22.066Z,12.82
2022-12-04T05:03:49.205Z,12.95
2022-12-04T05:06:16.287Z,12.27
2022-12-04T05:08:44.276Z,12.75
2022-12-04T05:11:12.137Z,12.52
2022-12-04T05:13:39.222Z,12.32
2022-12-04T05:16:07.221Z,12.55
2022-12-04T05:18:34.645Z,12.88
2022-12-04T05:21:17.242Z,12.15
2022-12-04T05:23:44.328Z,12.43
2022-12-04T05:26:11.513Z,12.27
2022-12-04T05:28:40.832Z,13.02
2022-12-04T05:31:07.947Z,11.88
2022-12-04T05:33:35.203Z,13.40
2022-12-04T05:36:03.114Z,13.00
2022-12-04T05:38:30.406Z,13.45
2022-12-04T05:41:00.533Z,12.70
2022-12-04T05:43:27.800Z,13.15
2022-12-04T05:45:54.836Z,13.95
2022-12-04T05:48:21.876Z,13.23
2022-12-04T05:50:48.958Z,13.82
2022-12-04T05:53:16.011Z,13.93
2022-12-04T05:55:43.100Z,13.40
2022-12-04T05:58:10.158Z,12.98
2022-12-04T06:00:37.248Z,13.95
2022-12-04T06:03:04.399Z,13.40
2022-12-04T06:05:32.924Z,13.00
2022-12-04T06:08:00.042Z,15.02
2022-12-04T06:10:27.252Z,14.35
2022-12-04T06:12:57.674Z,14.32
2022-12-04T06:15:25.014Z,13.40
2022-12-04T06:17:52.121Z,13.57
2022-12-04T06:20:19.255Z,13.85
2022-12-04T06:22:46.321Z,13.75
2022-12-04T06:25:13.379Z,13.38
2022-12-04T06:27:40.470Z,14.02
2022-12-04T06:30:07.919Z,13.70
2022-12-04T06:32:34.950Z,14.10
2022-12-04T06:35:01.977Z,13.65
2022-12-04T06:37:29.000Z,14.40
2022-12-04T06:39:56.300Z,13.68
2022-12-04T06:42:23.613Z,14.27
2022-12-04T06:44:50.698Z,13.80
2022-12-04T06:47:17.804Z,15.20
2022-12-04T06:49:46.058Z,14.98
2022-12-04T06:52:13.151Z,14.25
2022-12-04T06:54:40.214Z,14.13
2022-12-04T06:57:07.307Z,14.80
2022-12-04T06:59:34.696Z,14.90
2022-12-04T07:02:01.772Z,14.45
2022-12-04T07:04:28.926Z,14.77
2022-12-04T07:06:56.034Z,14.43
2022-12-04T07:09:23.130Z,13.50
2022-12-04T07:11:50.163Z,15.55
2022-12-04T07:14:17.254Z,16.63
2022-12-04T07:16:44.366Z,15.75
2022-12-04T07:19:11.669Z,17.45
2022-12-04T07:21:38.811Z,16.25
2022-12-04T07:24:06.047Z,16.77
2022-12-04T07:26:33.130Z,15.93
2022-12-04T07:30:52.721Z,16.33
2022-12-04T07:33:19.821Z,17.10
2022-12-04T07:35:46.894Z,16.95
2022-12-04T07:38:14.005Z,18.20
2022-12-04T07:40:41.066Z,18.35
2022-12-04T07:43:08.458Z,18.00
2022-12-04T07:45:35.549Z,17.45
2022-12-04T07:48:02.597Z,16.45
2022-12-04T07:50:29.683Z,18.20
2022-12-04T07:52:56.775Z,16.45
2022-12-04T07:55:23.786Z,17.05
2022-12-04T07:57:50.846Z,19.20
2022-12-04T08:00:18.223Z,18.45
2022-12-04T08:02:45.276Z,18.08
2022-12-04T08:05:12.360Z,19.33
2022-12-04T08:07:39.491Z,18.63
2022-12-04T08:10:06.900Z,18.42
2022-12-04T08:12:33.986Z,17.75
2022-12-04T08:15:01.088Z,17.45
2022-12-04T08:17:28.252Z,16.67
2022-12-04T08:19:55.625Z,17.73
2022-12-04T08:22:25.240Z,17.48
2022-12-04T08:24:52.612Z,19.90
2022-12-04T08:27:19.654Z,22.52
2022-12-04T08:29:46.847Z,17.90
2022-12-04T08:32:13.909Z,19.15
2022-12-04T08:34:40.960Z,19.70
2022-12-04T08:37:08.008Z,19.58
2022-12-04T08:39:35.080Z,19.40
2022-12-04T08:42:02.138Z,18.58
2022-12-04T08:44:29.141Z,17.73
2022-12-04T08:46:56.270Z,18.80
2022-12-04T08:49:23.345Z,18.98
2022-12-04T08:51:50.453Z,16.70
2022-12-04T08:54:17.551Z,16.55
2022-12-04T08:56:44.605Z,17.48
2022-12-04T08:59:12.679Z,16.85
2022-12-04T09:01:39.868Z,18.92
2022-12-04T09:04:07.017Z,18.52
2022-12-04T09:06:34.141Z,17.95
2022-12-04T09:09:01.541Z,18.35
2022-12-04T09:11:30.166Z,18.25
2022-12-04T09:13:57.240Z,17.77
2022-12-04T09:16:24.673Z,17.60
2022-12-04T09:18:51.861Z,17.08
2022-12-04T09:21:19.408Z,17.52
2022-12-04T09:23:46.584Z,17.23
2022-12-04T09:26:18.967Z,17.20
2022-12-04T09:28:46.626Z,16.70
2022-12-04T09:31:13.804Z,16.48
2022-12-04T09:33:40.980Z,15.65
2022-12-04T09:36:08.289Z,16.05
2022-12-04T09:38:35.390Z,16.45
2022-12-04T09:41:05.554Z,15.43
2022-12-04T09:43:36.661Z,16.80
2022-12-04T09:46:06.766Z,16.08
2022-12-04T09:48:38.261Z,15.25
2022-12-04T09:51:05.344Z,15.77
2022-12-04T09:53:55.768Z,15.52
2022-12-04T09:56:22.812Z,15.77
2022-12-04T09:58:49.834Z,15.80
2022-12-04T10:01:23.827Z,16.20
2022-12-04T10:03:51.067Z,16.63
2022-12-04T10:06:20.185Z,16.58
2022-12-04T10:08:47.583Z,17.27
2022-12-04T10:11:32.245Z,16.77
2022-12-04T10:14:11.966Z,16.10
2022-12-04T10:17:03.235Z,16.23
2022-12-04T10:19:33.389Z,15.82
2022-12-04T10:22:18.983Z,15.85
2022-12-04T10:24:50.619Z,14.48
2022-12-04T10:27:26.556Z,14.32
2022-12-04T10:29:55.833Z,15.55
2022-12-04T10:32:33.073Z,15.63
2022-12-04T10:35:06.120Z,16.02
2022-12-04T10:37:33.192Z,15.73
2022-12-04T10:40:05.813Z,16.77
2022-12-04T10:42:39.529Z,16.42
2022-12-04T10:45:07.130Z,17.58
2022-12-04T10:47:34.745Z,16.95
2022-12-04T10:50:03.306Z,17.42
2022-12-04T10:52:30.350Z,16.60
2022-12-04T10:54:59.721Z,16.05
2022-12-04T10:57:39.901Z,17.33
2022-12-04T11:00:27.454Z,16.58
2022-12-04T11:02:55.480Z,15.93
2022-12-04T11:05:44.144Z,16.50
2022-12-04T11:08:19.915Z,16.67
2022-12-04T11:10:47.141Z,16.33
2022-12-04T11:13:17.642Z,16.42
2022-12-04T11:18:18.836Z,16.73
2022-12-04T11:20:51.673Z,17.42
2022-12-04T11:23:18.767Z,16.88
2022-12-04T11:25:47.023Z,15.55
2022-12-04T11:28:39.835Z,16.77
2022-12-04T11:31:04.683Z,15.70
2022-12-04T11:33:43.674Z,17.20
2022-12-04T11:36:26.005Z,17.08
2022-12-04T11:38:53.820Z,16.80
2022-12-04T11:41:28.036Z,15.35
2022-12-04T11:43:59.660Z,16.35
2022-12-04T11:46:29.374Z,16.67
2022-12-04T11:48:56.546Z,17.13
2022-12-04T11:51:29.756Z,16.55
2022-12-04T11:53:59.686Z,17.60
2022-12-04T11:56:38.986Z,16.48
2022-12-04T11:59:08.866Z,16.25
2022-12-04T12:01:44.139Z,17.60
2022-12-04T12:04:14.366Z,17.08
2022-12-04T12:06:51.765Z,16.73
2022-12-04T12:09:37.879Z,17.08
2022-12-04T12:12:10.638Z,15.35
2022-12-04T12:14:43.896Z,16.10
2022-12-04T12:17:17.241Z,17.17
2022-12-04T12:20:06.491Z,15.18
2022-12-04T12:22:50.503Z,16.02
2022-12-04T12:25:36.936Z,16.10
2022-12-04T12:28:10.082Z,15.88
2022-12-04T12:30:44.101Z,16.75
2022-12-04T12:33:20.393Z,15.90
2022-12-04T12:36:26.494Z,15.23
2022-12-04T12:38:57.272Z,14.95
2022-12-04T12:41:25.271Z,16.38
2022-12-04T12:44:04.577Z,15.23
2022-12-04T12:46:34.817Z,15.65
2022-12-04T12:49:20.450Z,15.48
2022-12-04T12:52:06.912Z,15.75
2022-12-04T12:54:54.216Z,16.20
2022-12-04T12:57:21.266Z,14.38
2022-12-04T12:59:49.015Z,15.30
2022-12-04T13:02:25.247Z,13.45
2022-12-04T13:04:52.993Z,16.90
2022-12-04T13:07:23.099Z,15.80
2022-12-04T13:10:04.607Z,16.35
2022-12-04T13:12:33.980Z,18.75
2022-12-04T13:15:00.993Z,18.08
2022-12-04T13:17:34.799Z,16.58
2022-12-04T13:20:08.217Z,16.17
2022-12-04T13:22:44.312Z,15.18
2022-12-04T13:25:31.415Z,17.23
2022-12-04T13:27:58.458Z,16.83
2022-12-04T13:30:25.968Z,17.17
2022-12-04T13:33:05.354Z,17.20
2022-12-04T13:35:41.879Z,16.92
2022-12-04T13:38:08.945Z,16.42
2022-12-04T13:40:39.871Z,15.90
2022-12-04T13:43:16.065Z,17.00
2022-12-04T13:45:44.982Z,18.17
2022-12-04T13:48:12.025Z,16.63
2022-12-04T13:50:39.402Z,16.63
2022-12-04T13:53:06.688Z,17.77
2022-12-04T13:55:37.592Z,18.33
2022-12-04T13:58:13.783Z,17.25
2022-12-04T14:00:45.080Z,16.45
2022-12-04T14:03:32.875Z,16.10
2022-12-04T14:06:05.091Z,15.65
2022-12-04T14:08:39.357Z,16.23
2022-12-04T14:11:07.883Z,17.55
2022-12-04T14:13:41.030Z,17.08
2022-12-04T14:16:09.997Z,17.98
2022-12-04T14:18:37.031Z,16.67
2022-12-04T14:21:05.356Z,16.80
2022-12-04T14:23:39.441Z,17.08
2022-12-04T14:26:06.847Z,17.35
2022-12-04T14:28:41.712Z,15.68
2022-12-04T14:31:09.391Z,16.58
2022-12-04T14:33:38.850Z,17.00
2022-12-04T14:36:07.287Z,17.90
2022-12-04T14:38:34.339Z,16.30
2022-12-04T14:41:01.633Z,16.50
2022-12-04T14:43:30.590Z,16.48
2022-12-04T14:46:05.434Z,18.17
2022-12-04T14:48:41.626Z,16.83
2022-12-04T14:51:11.648Z,16.80
2022-12-04T14:53:42.982Z,17.05
2022-12-04T14:56:19.267Z,16.13
2022-12-04T14:58:46.599Z,15.57
2022-12-04T15:01:23.930Z,16.55
2022-12-04T15:03:55.947Z,14.63
2022-12-04T15:06:27.141Z,15.25
2022-12-04T15:09:15.190Z,15.02
2022-12-04T15:12:18.979Z,14.90
2022-12-04T15:14:47.080Z,15.00
2022-12-04T15:17:15.554Z,17.02
2022-12-04T15:19:42.607Z,15.52
2022-12-04T15:22:25.911Z,14.85
2022-12-04T15:24:53.349Z,16.10
2022-12-04T15:27:21.375Z,16.27
2022-12-04T15:29:49.145Z,16.42
2022-12-04T15:32:17.099Z,15.77
2022-12-04T15:34:48.669Z,16.77
2022-12-04T15:37:26.598Z,16.63
2022-12-04T15:39:53.972Z,16.23
2022-12-04T15:42:24.454Z,14.85
2022-12-04T15:45:03.586Z,15.73
2022-12-04T15:47:31.467Z,14.88
2022-12-04T15:50:10.279Z,14.57
2022-12-04T15:52:37.425Z,14.73
2022-12-04T15:55:08.025Z,16.10
2022-12-04T16:00:05.065Z,14.07
2022-12-04T16:02:36.161Z,18.27
2022-12-04T16:05:13.212Z,16.77
2022-12-04T16:07:48.314Z,15.02
2022-12-04T16:10:20.322Z,16.42
2022-12-04T16:12:52.696Z,15.20
2022-12-04T16:15:19.733Z,13.80
2022-12-04T16:17:46.730Z,13.10
2022-12-04T16:20:13.882Z,14.95
2022-12-04T16:22:41.404Z,15.95
2022-12-04T16:25:10.921Z,17.02
2022-12-04T16:27:37.981Z,15.43
2022-12-04T16:30:05.577Z,15.23
2022-12-04T16:32:33.093Z,15.88
2022-12-04T16:35:00.352Z,16.40
2022-12-04T16:37:27.505Z,15.20
2022-12-04T16:39:54.570Z,16.60
2022-12-04T16:42:25.611Z,14.95
2022-12-04T16:44:52.714Z,15.80
2022-12-04T16:47:19.974Z,15.32
2022-12-04T16:49:49.944Z,16.63
2022-12-04T16:52:17.053Z,14.95
2022-12-04T16:54:44.041Z,16.80
2022-12-04T16:57:11.076Z,16.98
2022-12-04T16:59:38.095Z,15.15
2022-12-04T17:02:05.632Z,15.77
2022-12-04T17:04:32.709Z,15.27
2022-12-04T17:06:59.736Z,15.80
2022-12-04T17:09:26.796Z,14.60
2022-12-04T17:11:53.857Z,15.93
2022-12-04T17:14:20.901Z,15.23
2022-12-04T17:16:47.979Z,16.98
2022-12-04T17:19:15.174Z,15.82
2022-12-04T17:21:42.250Z,15.82
2022-12-04T17:24:09.444Z,15.95
2022-12-04T17:26:36.477Z,16.67
2022-12-04T17:29:03.569Z,17.58
2022-12-04T17:31:30.718Z,17.05
2022-12-04T17:33:57.842Z,17.67
2022-12-04T17:36:26.084Z,18.25
2022-12-04T17:38:54.013Z,17.88
2022-12-04T17:41:21.030Z,19.10
2022-12-04T17:43:48.453Z,17.67
2022-12-04T17:46:18.816Z,17.85
2022-12-04T17:48:45.885Z,17.27
2022-12-04T17:51:16.942Z,17.80
2022-12-04T17:53:43.962Z,17.13
2022-12-04T17:56:12.693Z,17.35
2022-12-04T17:58:39.709Z,17.35
2022-12-04T18:01:10.968Z,16.38
2022-12-04T18:03:38.237Z,17.70
2022-12-04T18:06:15.243Z,17.20
2022-12-04T18:08:46.702Z,19.00
2022-12-04T18:11:17.029Z,16.83
2022-12-04T18:13:44.190Z,16.55
2022-12-04T18:16:11.534Z,16.17
2022-12-04T18:18:38.711Z,16.20
2022-12-04T18:21:06.875Z,17.92
2022-12-04T18:23:34.088Z,17.70
2022-12-04T18:26:01.371Z,17.15
2022-12-04T18:28:29.387Z,15.80
2022-12-04T18:30:56.589Z,16.75
2022-12-04T18:33:23.718Z,18.27
2022-12-04T18:35:55.318Z,18.38
2022-12-04T18:38:22.852Z,17.02
2022-12-04T18:40:50.660Z,18.02
2022-12-04T18:43:21.210Z,15.73
2022-12-04T18:48:16.253Z,17.88
2022-12-04T18:50:43.455Z,16.75
2022-12-04T18:53:10.826Z,17.70
2022-12-04T18:55:38.130Z,17.85
2022-12-04T18:58:05.278Z,17.60
2022-12-04T19:00:32.317Z,16.77
2022-12-04T19:02:59.350Z,17.10
2022-12-04T19:05:26.434Z,16.70
2022-12-04T19:07:53.694Z,16.48
2022-12-04T19:10:20.889Z,16.00
2022-12-04T19:12:48.061Z,15.90
2022-12-04T19:15:15.081Z,16.55
2022-12-04T19:17:42.147Z,16.20
2022-12-04T19:20:09.554Z,16.02
2022-12-04T19:22:36.775Z,16.15
2022-12-04T19:25:04.237Z,16.10
2022-12-04T19:27:31.272Z,15.07
2022-12-04T19:29:58.682Z,16.33
2022-12-04T19:32:26.002Z,16.45
2022-12-04T19:34:53.167Z,14.73
2022-12-04T19:37:20.200Z,16.25
2022-12-04T19:39:47.193Z,17.50
2022-12-04T19:42:14.233Z,16.70
2022-12-04T19:44:49.603Z,17.95
2022-12-04T19:47:17.266Z,15.88
2022-12-04T19:49:44.366Z,17.00
2022-12-04T19:52:11.794Z,16.98
2022-12-04T19:54:38.905Z,15.77
2022-12-04T19:57:06.018Z,17.05
2022-12-04T19:59:36.980Z,16.08
2022-12-04T20:02:05.780Z,16.08
2022-12-04T20:04:33.010Z,15.98
2022-12-04T20:07:00.458Z,14.98
2022-12-04T20:09:27.515Z,14.80
2022-12-04T20:11:54.581Z,15.55
2022-12-04T20:14:21.620Z,15.98
2022-12-04T20:23:50.481Z,14.65
2022-12-04T20:26:18.858Z,16.55
2022-12-04T20:28:45.966Z,16.27
2022-12-04T20:31:14.030Z,16.67
2022-12-04T20:33:41.169Z,17.73
2022-12-04T20:36:08.855Z,16.77
2022-12-04T20:38:35.946Z,16.33
2022-12-04T20:41:03.842Z,16.67
2022-12-04T20:43:30.962Z,15.90
2022-12-04T20:45:58.099Z,15.50
2022-12-04T20:48:25.223Z,17.17
2022-12-04T20:50:52.264Z,17.40
2022-12-04T20:53:19.436Z,17.75
2022-12-04T20:55:53.833Z,18.02
2022-12-04T20:58:20.921Z,18.10
2022-12-04T21:00:47.996Z,18.10
2022-12-04T21:03:15.261Z,18.58
2022-12-04T21:05:42.427Z,18.33
2022-12-04T21:08:09.621Z,17.55
2022-12-04T21:10:36.715Z,17.27
2022-12-04T21:13:26.730Z,16.65
2022-12-04T21:16:03.670Z,17.50
2022-12-04T21:18:30.722Z,17.75
2022-12-04T21:20:57.798Z,16.15
2022-12-04T21:23:24.872Z,17.63
2022-12-04T21:25:51.944Z,16.65
2022-12-04T21:28:18.996Z,17.52
2022-12-04T21:30:46.156Z,18.33
2022-12-04T21:33:13.294Z,17.77
2022-12-04T21:35:40.497Z,18.70
2022-12-04T21:38:07.575Z,18.15
2022-12-04T21:40:40.640Z,18.92
2022-12-04T21:43:09.323Z,18.42
2022-12-04T21:45:36.339Z,18.35
2022-12-04T21:48:03.429Z,19.13
2022-12-04T21:50:30.454Z,20.30
2022-12-04T21:52:57.508Z,19.55
2022-12-04T21:55:24.606Z,19.88
2022-12-04T21:57:51.837Z,20.08
2022-12-04T22:00:18.923Z,21.77
2022-12-04T22:02:46.011Z,19.92
2022-12-04T22:05:13.128Z,17.80
2022-12-04T22:07:40.311Z,19.92
2022-12-04T22:10:10.853Z,19.42
2022-12-04T22:12:49.423Z,19.35
2022-12-04T22:15:17.231Z,19.58
2022-12-04T22:17:44.299Z,20.40
2022-12-04T22:20:11.402Z,19.30
2022-12-04T22:22:38.495Z,20.42
2022-12-04T22:25:05.700Z,20.20
2022-12-04T22:27:32.733Z,20.77
2022-12-04T22:30:00.001Z,20.05
2022-12-04T22:32:27.049Z,25.08
2022-12-04T22:34:54.043Z,21.67
2022-12-04T22:37:21.128Z,21.42
2022-12-04T22:39:48.147Z,20.70
2022-12-04T22:42:15.193Z,22.25
2022-12-04T22:44:42.244Z,18.60
2022-12-04T22:47:09.323Z,20.25
2022-12-04T22:49:36.466Z,20.58
2022-12-04T22:52:03.497Z,20.92
2022-12-04T22:54:30.506Z,21.05
2022-12-04T22:56:57.522Z,21.63
2022-12-04T22:59:24.596Z,22.80
2022-12-04T23:01:51.611Z,23.23
2022-12-04T23:04:18.644Z,23.55
2022-12-04T23:06:45.719Z,23.77
2022-12-04T23:09:13.604Z,23.33
2022-12-04T23:11:40.740Z,21.98
2022-12-04T23:14:08.757Z,23.17
2022-12-04T23:16:36.936Z,22.55
2022-12-04T23:19:04.070Z,24.88
2022-12-04T23:21:31.092Z,22.65
2022-12-04T23:23:58.250Z,29.25
2022-12-04T23:26:26.318Z,23.45
2022-12-04T23:28:53.368Z,23.75
2022-12-04T23:31:20.419Z,22.42
2022-12-04T23:33:47.471Z,23.73
2022-12-04T23:36:14.858Z,22.88
2022-12-04T23:38:42.284Z,24.08
2022-12-04T23:41:09.316Z,24.80
2022-12-04T23:43:36.442Z,25.00
2022-12-04T23:46:10.362Z,25.08
2022-12-04T23:48:38.218Z,23.58
2022-12-04T23:51:05.249Z,24.55
2022-12-04T23:53:32.449Z,27.13
2022-12-04T23:56:19.777Z,26.05
2022-12-04T23:58:48.891Z,25.17
